Hollywood Heights, Illinois
Current Conditions -  °F | °C
As of 12:53 PM on Tuesday 21 Oct 2014 (Local Time) from KCPS Reporting Station
Clear Clear  
Wind Chill: 66°   Ceiling: Unl
Heat Index: 66°   Visibility: 10mi
Dew Point: 46°   Wind: 10mph
Humidity: 48%   Direction: 30°NNE
Pressure: 30.13"   Gusts: NA
Location:  38.635°N, 90.0037°W
Report Text: KCPS 211753Z 03009KT 10SM CLR 19/08 A3013 RMK AO2 SLP202 T01890078 10189 20061 50000
Loading
Personal Weather Stations






























Interactive Weather Map
Tropical Storm Tracking
New forecast layout! Learn more

10-Day Weather Forecast

Advertisements
Track Severe Weather on mobile